Time;durP1;ratioP1;P1;durP2;ratioP2;P2;SDS_P1;SDS_P2;PMS_P1;PMS_P2;Temp;Humidity;BMP_temperature;BMP_pressure;BME280_temperature;BME280_humidity;BME280_pressure;Samples;Min_cycle;Max_cycle;Signal;HPM_P1;HPM_P2
2021/03/09 00:02:04;;;;;;;14.82;7.22;;;-0.30;99.90;;;;;;5051792;28;20273;-75
2021/03/09 00:04:30;;;;;;;11.85;6.70;;;-0.20;99.90;;;;;;5052152;28;20590;-75
2021/03/09 00:06:57;;;;;;;14.45;7.57;;;-0.30;99.90;;;;;;5042185;28;20627;-75
2021/03/09 00:09:23;;;;;;;10.30;6.40;;;-0.30;99.90;;;;;;5045025;28;20616;-75
2021/03/09 00:11:49;;;;;;;14.35;5.63;;;-0.30;99.90;;;;;;5049676;28;20272;-76
2021/03/09 00:14:15;;;;;;;13.38;5.90;;;-0.30;99.90;;;;;;5038654;28;20573;-75
2021/03/09 00:16:41;;;;;;;13.80;7.00;;;-0.30;99.90;;;;;;5050556;28;20186;-75
2021/03/09 00:19:07;;;;;;;15.75;7.07;;;-0.30;99.90;;;;;;5043708;28;20515;-76
2021/03/09 00:21:33;;;;;;;10.65;5.68;;;-0.30;99.90;;;;;;5055072;28;20652;-76
2021/03/09 00:24:00;;;;;;;14.30;5.60;;;-0.20;99.90;;;;;;5039676;28;20242;-75
2021/03/09 00:26:26;;;;;;;5.75;4.18;;;-0.30;99.90;;;;;;5051544;28;20320;-75
2021/03/09 00:28:52;;;;;;;16.02;5.00;;;-0.30;99.90;;;;;;5041488;28;20217;-74
2021/03/09 00:31:18;;;;;;;9.50;5.17;;;-0.20;99.90;;;;;;5045141;28;20642;-74
2021/03/09 00:33:44;;;;;;;11.02;4.93;;;-0.30;99.90;;;;;;5038052;28;20532;-75
2021/03/09 00:36:10;;;;;;;8.32;4.00;;;-0.30;99.90;;;;;;5051197;28;20296;-75
2021/03/09 00:38:36;;;;;;;7.10;4.82;;;-0.30;99.90;;;;;;5038968;28;20193;-75
2021/03/09 00:41:03;;;;;;;7.90;5.87;;;-0.30;99.90;;;;;;5054960;28;20190;-72
2021/03/09 00:43:29;;;;;;;7.88;5.55;;;-0.30;99.90;;;;;;5043559;28;20450;-72
2021/03/09 00:45:55;;;;;;;12.32;7.47;;;-0.30;99.90;;;;;;5049793;28;20229;-73
2021/03/09 00:48:21;;;;;;;15.73;6.68;;;-0.30;99.90;;;;;;5052476;28;20281;-73
2021/03/09 00:50:47;;;;;;;13.60;5.80;;;-0.20;99.90;;;;;;5040452;28;20178;-73
2021/03/09 00:53:13;;;;;;;9.38;6.05;;;-0.30;99.90;;;;;;5047928;28;20269;-72
2021/03/09 00:55:39;;;;;;;15.65;6.63;;;-0.30;99.90;;;;;;5043132;28;20209;-72
2021/03/09 00:58:06;;;;;;;11.80;5.43;;;-0.30;99.90;;;;;;5058146;28;20277;-72
2021/03/09 01:00:32;;;;;;;5.82;4.25;;;-0.30;99.90;;;;;;5038077;28;20277;-71
2021/03/09 01:02:58;;;;;;;7.80;4.53;;;-0.30;99.90;;;;;;5047159;28;20614;-74
2021/03/09 01:05:25;;;;;;;5.57;3.75;;;-0.30;99.90;;;;;;5034501;28;20270;-73
2021/03/09 01:07:52;;;;;;;11.18;4.95;;;-0.40;99.90;;;;;;5048920;28;20681;-72
2021/03/09 01:10:20;;;;;;;11.00;5.45;;;-0.30;99.90;;;;;;5037911;28;20638;-73
2021/03/09 01:12:46;;;;;;;9.48;5.28;;;-0.30;99.90;;;;;;5048987;28;20189;-72
2021/03/09 01:15:14;;;;;;;9.13;4.35;;;-0.30;99.90;;;;;;5043293;28;20704;-72
2021/03/09 01:17:40;;;;;;;11.35;5.38;;;-0.30;99.90;;;;;;5041296;28;20700;-72
2021/03/09 01:20:08;;;;;;;5.57;4.63;;;-0.30;99.90;;;;;;5050869;28;20292;-72
2021/03/09 01:22:34;;;;;;;8.95;4.47;;;-0.20;99.90;;;;;;5038114;28;20265;-72
2021/03/09 01:25:01;;;;;;;9.63;4.45;;;-0.20;99.90;;;;;;5046590;28;20301;-72
2021/03/09 01:27:27;;;;;;;8.00;4.18;;;-0.20;99.90;;;;;;5045071;28;20224;-73
2021/03/09 01:29:53;;;;;;;7.97;4.43;;;-0.20;99.90;;;;;;5039405;28;20273;-72
2021/03/09 01:32:21;;;;;;;7.05;4.60;;;-0.20;99.90;;;;;;5050159;28;20182;-73
2021/03/09 01:34:47;;;;;;;8.43;3.70;;;-0.20;99.90;;;;;;5039722;28;20274;-73
2021/03/09 01:37:13;;;;;;;5.20;3.38;;;-0.20;99.90;;;;;;5044737;28;20265;-73
2021/03/09 01:39:39;;;;;;;8.55;5.05;;;-0.20;99.90;;;;;;5046622;28;20233;-72
2021/03/09 01:42:06;;;;;;;5.38;4.10;;;-0.20;99.90;;;;;;5053728;28;20607;-72
2021/03/09 01:44:32;;;;;;;9.73;5.53;;;-0.10;99.90;;;;;;5037188;28;20252;-73
2021/03/09 01:47:01;;;;;;;9.80;4.78;;;-0.20;99.90;;;;;;5046355;28;20691;-73
2021/03/09 01:49:30;;;;;;;7.53;4.32;;;-0.20;99.90;;;;;;5044948;28;20185;-73
2021/03/09 01:51:56;;;;;;;7.70;4.85;;;-0.20;99.90;;;;;;5038566;28;20274;-73
2021/03/09 01:54:22;;;;;;;8.48;4.90;;;-0.20;99.90;;;;;;5049987;28;20225;-78
2021/03/09 01:56:48;;;;;;;6.13;4.10;;;-0.20;99.90;;;;;;5039389;28;20221;-74
2021/03/09 01:59:17;;;;;;;13.05;5.75;;;-0.20;99.90;;;;;;5044041;28;20205;-75
2021/03/09 02:01:43;;;;;;;7.47;4.18;;;-0.30;99.90;;;;;;5035936;28;20194;-75
2021/03/09 02:04:10;;;;;;;5.90;3.80;;;-0.30;99.90;;;;;;5036658;28;20570;-74
2021/03/09 02:06:36;;;;;;;7.80;4.72;;;-0.30;99.90;;;;;;5049045;28;20230;-74
2021/03/09 02:09:03;;;;;;;6.00;4.35;;;-0.30;99.90;;;;;;5041080;28;20293;-73
2021/03/09 02:11:36;;;;;;;7.60;4.60;;;-0.40;99.90;;;;;;5041806;28;20210;-74
2021/03/09 02:14:10;;;;;;;5.95;4.20;;;-0.40;99.90;;;;;;5049061;28;20273;-73
2021/03/09 02:16:43;;;;;;;9.82;5.03;;;-0.40;99.90;;;;;;5037328;28;20328;-73
2021/03/09 02:19:42;;;;;;;6.60;5.07;;;-0.50;99.90;;;;;;5044449;28;20721;-73
2021/03/09 02:22:31;;;;;;;6.32;4.03;;;-0.50;99.90;;;;;;5049603;28;20213;-74
2021/03/09 02:25:06;;;;;;;5.45;4.07;;;-0.50;99.90;;;;;;5045843;28;20249;-73
2021/03/09 02:27:43;;;;;;;8.05;4.55;;;-0.60;99.90;;;;;;5044808;28;20255;-73
2021/03/09 02:30:26;;;;;;;4.95;4.07;;;-0.60;99.90;;;;;;5036222;28;20577;-73
2021/03/09 02:33:00;;;;;;;8.18;3.95;;;-0.60;99.90;;;;;;5047425;28;20226;-73
2021/03/09 02:35:28;;;;;;;6.60;4.07;;;-0.60;99.90;;;;;;5042033;28;20191;-73
2021/03/09 02:38:02;;;;;;;4.88;3.30;;;-0.60;99.90;;;;;;5047570;28;20232;-73
2021/03/09 02:40:30;;;;;;;9.98;3.90;;;-0.60;99.90;;;;;;5036249;28;20218;-73
2021/03/09 02:43:02;;;;;;;6.38;4.15;;;-0.60;99.90;;;;;;5045828;28;20301;-75
2021/03/09 02:45:30;;;;;;;4.90;3.83;;;-0.70;99.90;;;;;;5043883;28;20692;-75
2021/03/09 02:47:58;;;;;;;9.50;4.60;;;-0.70;99.90;;;;;;5037650;28;20304;-74
2021/03/09 02:50:27;;;;;;;5.88;3.97;;;-0.70;99.90;;;;;;5049119;28;20597;-74
2021/03/09 02:52:57;;;;;;;9.93;5.20;;;-0.70;99.90;;;;;;5039194;28;20216;-74
2021/03/09 02:55:25;;;;;;;11.13;4.82;;;-0.70;99.90;;;;;;5042047;28;20630;-73
2021/03/09 02:57:53;;;;;;;7.40;4.97;;;-0.70;99.90;;;;;;5032482;28;20675;-73
2021/03/09 03:00:20;;;;;;;10.60;5.20;;;-0.70;99.90;;;;;;5049170;28;20217;-74
2021/03/09 03:02:47;;;;;;;9.88;4.50;;;-0.70;99.90;;;;;;5038145;28;20589;-73
2021/03/09 03:05:14;;;;;;;7.38;4.43;;;-0.70;99.90;;;;;;5043439;28;20206;-74
2021/03/09 03:07:41;;;;;;;7.57;5.05;;;-0.80;99.90;;;;;;5045313;28;20267;-74
2021/03/09 03:10:12;;;;;;;7.00;4.50;;;-0.80;99.90;;;;;;5035937;28;20645;-74
2021/03/09 03:12:40;;;;;;;9.60;4.70;;;-0.80;99.90;;;;;;5048094;28;20191;-74
2021/03/09 03:15:09;;;;;;;6.63;3.65;;;-0.80;99.90;;;;;;5040900;28;20224;-74
2021/03/09 03:17:36;;;;;;;8.88;4.55;;;-0.80;99.90;;;;;;5042254;28;20226;-74
2021/03/09 03:20:06;;;;;;;13.27;5.78;;;-0.80;99.90;;;;;;5052490;28;20217;-74
2021/03/09 03:22:33;;;;;;;6.20;4.20;;;-0.80;99.90;;;;;;5039483;28;20182;-75
2021/03/09 03:25:03;;;;;;;7.13;4.40;;;-0.80;99.90;;;;;;5048784;28;20218;-74
2021/03/09 03:27:30;;;;;;;5.97;4.68;;;-0.80;99.90;;;;;;5047656;28;20696;-74
2021/03/09 03:29:56;;;;;;;8.93;4.50;;;-0.80;99.90;;;;;;5041025;28;20186;-74
2021/03/09 03:32:23;;;;;;;9.27;4.53;;;-0.90;99.90;;;;;;5051763;28;20547;-74
2021/03/09 03:34:49;;;;;;;10.43;5.00;;;-0.90;99.90;;;;;;5050356;28;20270;-74
2021/03/09 03:37:17;;;;;;;6.97;3.63;;;-0.90;99.90;;;;;;5045522;28;20209;-73
2021/03/09 03:39:43;;;;;;;8.77;4.40;;;-0.90;99.90;;;;;;5042862;28;20225;-74
2021/03/09 03:42:09;;;;;;;8.70;5.07;;;-0.90;99.90;;;;;;5052861;28;20224;-74
2021/03/09 03:44:35;;;;;;;8.35;4.50;;;-0.90;99.90;;;;;;5051970;28;20217;-74
2021/03/09 03:47:01;;;;;;;10.75;5.57;;;-0.90;99.90;;;;;;5041356;28;20357;-74
2021/03/09 03:49:28;;;;;;;6.65;4.38;;;-0.90;99.90;;;;;;5049222;28;20276;-74
2021/03/09 03:52:02;;;;;;;9.32;4.68;;;-0.90;99.90;;;;;;5049806;28;20281;-73
2021/03/09 03:54:39;;;;;;;7.20;4.30;;;-0.90;99.90;;;;;;5047952;28;20285;-73
2021/03/09 03:57:11;;;;;;;8.80;4.95;;;-0.90;99.90;;;;;;5048978;28;20281;-74
2021/03/09 03:59:40;;;;;;;8.15;4.70;;;-0.90;99.90;;;;;;5049857;28;20279;-74
2021/03/09 04:02:08;;;;;;;9.20;4.22;;;-0.90;99.90;;;;;;5047978;28;20643;-74
2021/03/09 04:04:37;;;;;;;8.00;4.32;;;-0.90;99.90;;;;;;5049656;28;20193;-74
2021/03/09 04:07:05;;;;;;;6.22;4.40;;;-0.80;99.90;;;;;;5047719;28;20232;-73
2021/03/09 04:09:33;;;;;;;6.47;4.15;;;-0.80;99.90;;;;;;5049373;28;20288;-73
2021/03/09 04:12:01;;;;;;;9.48;4.75;;;-0.80;99.90;;;;;;5048193;28;20194;-73
2021/03/09 04:14:31;;;;;;;6.45;4.20;;;-0.80;99.90;;;;;;5048513;28;20324;-73
2021/03/09 04:16:59;;;;;;;11.20;4.85;;;-0.80;99.90;;;;;;5047734;28;20226;-74
2021/03/09 04:19:25;;;;;;;10.15;5.40;;;-0.80;99.90;;;;;;5047443;28;20201;-74
2021/03/09 04:21:53;;;;;;;12.60;5.57;;;-0.80;99.90;;;;;;5049368;28;20281;-74
2021/03/09 04:24:20;;;;;;;7.82;4.70;;;-0.70;99.90;;;;;;5048031;28;20224;-74
2021/03/09 04:26:48;;;;;;;7.57;5.25;;;-0.70;99.90;;;;;;5049185;28;20569;-73
2021/03/09 04:29:15;;;;;;;10.80;4.38;;;-0.70;99.90;;;;;;5047738;28;20628;-73
2021/03/09 04:31:43;;;;;;;6.35;4.43;;;-0.70;99.90;;;;;;5048061;28;20272;-73
2021/03/09 04:34:10;;;;;;;5.97;4.20;;;-0.70;99.90;;;;;;5048675;28;20277;-73
2021/03/09 04:36:37;;;;;;;8.57;5.20;;;-0.70;99.90;;;;;;5049848;28;20191;-73
2021/03/09 04:39:04;;;;;;;10.23;4.70;;;-0.70;99.90;;;;;;5047373;28;20279;-73
2021/03/09 04:41:30;;;;;;;8.90;4.82;;;-0.70;99.90;;;;;;5048268;28;20213;-73
2021/03/09 04:43:59;;;;;;;6.97;4.63;;;-0.70;99.90;;;;;;5047084;28;20299;-73
2021/03/09 04:46:25;;;;;;;8.15;4.97;;;-0.70;99.90;;;;;;5046867;28;20194;-73
2021/03/09 04:48:51;;;;;;;7.72;5.03;;;-0.70;99.90;;;;;;5041205;28;20686;-74
2021/03/09 04:51:18;;;;;;;7.20;4.75;;;-0.70;99.90;;;;;;5045030;28;20607;-74
2021/03/09 04:53:46;;;;;;;14.55;6.53;;;-0.70;99.90;;;;;;5054493;28;20211;-74
2021/03/09 04:56:12;;;;;;;8.35;5.35;;;-0.80;99.90;;;;;;5056254;28;20190;-74
2021/03/09 04:58:39;;;;;;;8.82;5.20;;;-0.80;99.90;;;;;;5034554;28;20266;-74
2021/03/09 05:01:06;;;;;;;8.05;5.38;;;-0.80;99.90;;;;;;5042596;28;20510;-74
2021/03/09 05:03:32;;;;;;;9.55;5.93;;;-0.80;99.90;;;;;;5046499;28;20229;-74
2021/03/09 05:05:59;;;;;;;9.52;5.50;;;-0.70;99.90;;;;;;5039006;28;20277;-74
2021/03/09 05:08:25;;;;;;;11.50;6.10;;;-0.70;99.90;;;;;;5053366;28;20276;-73
2021/03/09 05:10:53;;;;;;;10.85;5.90;;;-0.70;99.90;;;;;;5048026;28;20394;-73
2021/03/09 05:13:19;;;;;;;9.50;5.95;;;-0.80;99.90;;;;;;5044403;28;20216;-73
2021/03/09 05:15:45;;;;;;;10.43;6.10;;;-0.80;99.90;;;;;;5040706;28;20190;-73
2021/03/09 05:18:12;;;;;;;10.50;5.90;;;-0.70;99.90;;;;;;5050699;28;20246;-74
2021/03/09 05:20:39;;;;;;;7.72;4.90;;;-0.70;99.90;;;;;;5038725;28;20316;-74
2021/03/09 05:23:05;;;;;;;8.55;4.85;;;-0.80;99.90;;;;;;5046098;28;20214;-74
2021/03/09 05:25:31;;;;;;;7.57;4.35;;;-0.80;99.90;;;;;;5045609;28;20300;-75
2021/03/09 05:27:57;;;;;;;9.38;5.75;;;-0.80;99.90;;;;;;5039013;28;20348;-74
2021/03/09 05:30:26;;;;;;;10.68;5.93;;;-0.80;99.90;;;;;;5050454;28;20192;-74
2021/03/09 05:32:53;;;;;;;10.30;5.30;;;-0.80;99.90;;;;;;5037051;28;20646;-75
2021/03/09 05:35:20;;;;;;;7.25;4.30;;;-0.80;99.90;;;;;;5043869;28;20217;-76
2021/03/09 05:37:47;;;;;;;10.18;5.93;;;-0.80;99.90;;;;;;5040212;28;20616;-75
2021/03/09 05:40:18;;;;;;;8.27;4.65;;;-0.80;99.90;;;;;;5049513;28;20630;-75
2021/03/09 05:42:47;;;;;;;9.48;5.10;;;-0.80;99.90;;;;;;5039108;28;20269;-75
2021/03/09 05:45:13;;;;;;;13.00;6.60;;;-0.70;99.90;;;;;;5053814;28;20535;-76
2021/03/09 05:47:40;;;;;;;28.50;17.00;;;-0.70;99.90;;;;;;5044113;28;20631;-76
2021/03/09 05:50:07;;;;;;;13.18;7.55;;;-0.70;99.90;;;;;;5045809;28;20217;-75
2021/03/09 05:52:37;;;;;;;7.32;5.05;;;-0.70;99.90;;;;;;5047630;28;20775;-77
2021/03/09 05:55:08;;;;;;;9.80;5.72;;;-0.70;99.90;;;;;;5045611;28;20187;-77
2021/03/09 05:57:34;;;;;;;7.25;5.30;;;-0.70;99.90;;;;;;5045483;28;20663;-76
2021/03/09 06:00:01;;;;;;;16.42;6.03;;;-0.70;99.90;;;;;;5037349;28;20617;-75
2021/03/09 06:02:29;;;;;;;8.18;6.00;;;-0.60;99.90;;;;;;5052514;28;20222;-75
2021/03/09 06:04:55;;;;;;;10.45;5.65;;;-0.60;99.90;;;;;;5046554;28;20187;-76
2021/03/09 06:07:21;;;;;;;6.43;4.80;;;-0.50;99.90;;;;;;5043230;28;20218;-73
2021/03/09 06:09:48;;;;;;;9.75;5.72;;;-0.40;99.90;;;;;;5041647;28;20273;-73
2021/03/09 06:12:16;;;;;;;13.30;5.70;;;-0.40;99.90;;;;;;5043143;28;20324;-73
2021/03/09 06:14:45;;;;;;;9.77;5.78;;;-0.30;99.90;;;;;;5048066;28;20187;-74
2021/03/09 06:17:13;;;;;;;13.88;4.68;;;-0.30;99.90;;;;;;5040738;28;20186;-73
2021/03/09 06:19:44;;;;;;;8.40;5.20;;;-0.20;99.90;;;;;;5051620;28;20217;-76
2021/03/09 06:22:11;;;;;;;10.63;6.05;;;-0.20;99.90;;;;;;5036443;28;20210;-76
2021/03/09 06:24:37;;;;;;;7.43;5.03;;;-0.10;99.90;;;;;;5048736;28;20297;-76
2021/03/09 06:27:21;;;;;;;6.57;5.05;;;-0.10;99.90;;;;;;5040608;28;20248;-73
2021/03/09 06:29:47;;;;;;;11.05;4.78;;;0.00;99.90;;;;;;5052979;28;20194;-73
2021/03/09 06:32:13;;;;;;;11.23;4.73;;;0.00;99.90;;;;;;5037557;28;20695;-73
2021/03/09 06:34:39;;;;;;;9.13;5.72;;;0.10;99.90;;;;;;5045703;28;20509;-74
2021/03/09 06:37:09;;;;;;;10.50;6.00;;;0.20;99.90;;;;;;5042770;28;20183;-73
2021/03/09 06:39:46;;;;;;;12.63;5.97;;;0.40;99.90;;;;;;5043686;28;20736;-73
2021/03/09 06:42:14;;;;;;;11.18;4.95;;;0.60;99.90;;;;;;5035942;28;20289;-73
2021/03/09 06:44:41;;;;;;;8.80;5.15;;;0.70;99.90;;;;;;5047971;28;20695;-74
2021/03/09 06:47:07;;;;;;;9.07;5.00;;;0.90;99.90;;;;;;5041140;28;20245;-74
2021/03/09 06:49:48;;;;;;;6.78;5.18;;;1.00;99.90;;;;;;5040852;28;20197;-74
2021/03/09 06:52:15;;;;;;;7.30;4.82;;;1.20;99.90;;;;;;5048344;28;20193;-74
2021/03/09 06:54:45;;;;;;;6.50;4.53;;;1.30;99.90;;;;;;5047920;28;20182;-74
2021/03/09 06:57:11;;;;;;;12.95;5.68;;;1.40;99.90;;;;;;5032741;28;20293;-73
2021/03/09 06:59:41;;;;;;;9.98;5.30;;;1.50;99.90;;;;;;5045459;28;20196;-74
2021/03/09 07:02:08;;;;;;;9.38;4.68;;;1.70;99.90;;;;;;5035942;28;20672;-74
2021/03/09 07:04:38;;;;;;;10.02;5.30;;;1.90;99.90;;;;;;5048704;28;20197;-74
2021/03/09 07:07:06;;;;;;;9.80;5.70;;;2.00;99.90;;;;;;5040384;28;20209;-73
2021/03/09 07:09:32;;;;;;;9.73;5.00;;;2.20;99.90;;;;;;5052453;28;20272;-73
2021/03/09 07:11:59;;;;;;;9.20;5.00;;;2.40;99.90;;;;;;5037059;28;20273;-73
2021/03/09 07:14:26;;;;;;;6.35;4.40;;;2.50;99.90;;;;;;5049249;28;20186;-74
2021/03/09 07:16:53;;;;;;;5.20;4.28;;;2.60;99.90;;;;;;5038923;28;20278;-73
2021/03/09 07:19:25;;;;;;;5.88;4.32;;;2.70;99.90;;;;;;5042333;28;20211;-73
2021/03/09 07:21:51;;;;;;;6.32;4.50;;;2.80;99.90;;;;;;5046808;28;20186;-73
2021/03/09 07:24:20;;;;;;;6.38;4.28;;;2.90;99.90;;;;;;5035646;28;20301;-74
2021/03/09 07:26:48;;;;;;;9.63;5.40;;;3.00;99.90;;;;;;5046471;28;20222;-74
2021/03/09 07:29:17;;;;;;;8.05;4.60;;;3.10;99.90;;;;;;5041927;28;20182;-73
2021/03/09 07:31:47;;;;;;;9.00;5.10;;;3.10;99.90;;;;;;5038949;28;20260;-74
2021/03/09 07:34:15;;;;;;;8.57;5.07;;;3.20;99.90;;;;;;5048682;28;20681;-73
2021/03/09 07:36:41;;;;;;;8.35;5.50;;;3.20;99.90;;;;;;5036954;28;20213;-74
2021/03/09 07:39:08;;;;;;;12.45;4.80;;;3.20;99.90;;;;;;5044089;28;20214;-73
2021/03/09 07:41:36;;;;;;;6.90;4.40;;;3.20;99.90;;;;;;5044254;28;20276;-74
2021/03/09 07:44:03;;;;;;;7.18;4.75;;;3.20;99.90;;;;;;5038015;28;20278;-74
2021/03/09 07:46:30;;;;;;;6.03;4.22;;;3.20;99.90;;;;;;5040891;28;20309;-73
2021/03/09 07:48:57;;;;;;;8.85;5.10;;;3.30;99.90;;;;;;5044297;28;20186;-73
2021/03/09 07:51:24;;;;;;;8.68;5.00;;;3.20;99.90;;;;;;5042235;28;20186;-75
2021/03/09 07:54:09;;;;;;;9.50;4.82;;;3.20;99.90;;;;;;5051514;28;20295;-75
2021/03/09 07:56:35;;;;;;;10.68;5.60;;;3.20;99.90;;;;;;5032412;28;20230;-74
2021/03/09 07:59:06;;;;;;;9.18;5.05;;;3.20;99.90;;;;;;5034945;28;20228;-74
2021/03/09 08:01:50;;;;;;;6.70;4.75;;;3.20;99.90;;;;;;5043262;28;20187;-74
2021/03/09 08:04:17;;;;;;;9.77;5.82;;;3.30;99.90;;;;;;5051913;28;20269;-74
2021/03/09 08:06:44;;;;;;;6.53;4.95;;;3.30;99.90;;;;;;5057839;28;20252;-74
2021/03/09 08:09:35;;;;;;;7.63;5.40;;;3.40;99.90;;;;;;5039984;28;20179;-74
2021/03/09 08:12:02;;;;;;;6.70;4.95;;;3.40;99.90;;;;;;5044158;28;20190;-74
2021/03/09 08:14:29;;;;;;;10.07;5.90;;;3.50;99.90;;;;;;5050348;28;20205;-74
2021/03/09 08:16:55;;;;;;;8.32;4.43;;;3.50;99.90;;;;;;5041356;28;20241;-74
2021/03/09 08:19:41;;;;;;;5.40;4.57;;;3.60;99.90;;;;;;5047160;28;20198;-74
2021/03/09 08:22:08;;;;;;;11.02;5.50;;;3.70;99.90;;;;;;5038939;28;20225;-74
2021/03/09 08:24:51;;;;;;;8.73;5.95;;;3.80;99.90;;;;;;5038726;28;20750;-73
2021/03/09 08:27:47;;;;;;;8.20;4.88;;;3.90;99.90;;;;;;5051154;28;20707;-74
2021/03/09 08:30:34;;;;;;;7.72;4.53;;;3.90;99.90;;;;;;5047736;28;20275;-74
2021/03/09 08:33:31;;;;;;;8.73;5.13;;;3.90;99.90;;;;;;5044251;28;20191;-74
2021/03/09 08:35:58;;;;;;;10.30;5.47;;;4.00;99.90;;;;;;5035469;28;20187;-74
2021/03/09 08:38:25;;;;;;;8.50;6.07;;;4.20;99.90;;;;;;5037288;28;20190;-74
2021/03/09 08:41:09;;;;;;;8.95;6.05;;;4.30;99.90;;;;;;5044524;28;20230;-74
2021/03/09 08:44:06;;;;;;;11.73;5.97;;;4.40;99.90;;;;;;5048146;28;20183;-74
2021/03/09 08:46:51;;;;;;;11.88;5.57;;;4.40;99.90;;;;;;5048543;28;20277;-74
2021/03/09 08:49:43;;;;;;;7.75;5.57;;;4.50;99.90;;;;;;5053894;28;20281;-74
2021/03/09 08:52:11;;;;;;;10.10;5.82;;;4.50;99.90;;;;;;5052165;28;20273;-74
2021/03/09 08:54:40;;;;;;;6.93;4.80;;;4.50;99.90;;;;;;5053485;28;20248;-74
2021/03/09 08:57:09;;;;;;;11.88;5.65;;;4.40;99.90;;;;;;5035288;28;20190;-74
2021/03/09 08:59:37;;;;;;;12.68;5.47;;;4.40;99.90;;;;;;5036234;28;20553;-74
2021/03/09 09:02:06;;;;;;;13.43;7.07;;;4.40;99.90;;;;;;5052273;28;20245;-74
2021/03/09 09:04:32;;;;;;;12.75;5.72;;;4.40;99.90;;;;;;5045014;28;20210;-74
2021/03/09 09:06:58;;;;;;;9.32;5.63;;;4.40;99.90;;;;;;5053367;28;20534;-74
2021/03/09 09:09:34;;;;;;;10.52;5.50;;;4.30;99.90;;;;;;5038408;28;20186;-74
2021/03/09 09:12:19;;;;;;;7.68;5.03;;;4.30;99.90;;;;;;5044904;28;20248;-74
2021/03/09 09:14:45;;;;;;;7.70;5.55;;;4.20;99.90;;;;;;5048973;28;20193;-74
2021/03/09 09:17:11;;;;;;;5.60;4.93;;;4.20;99.90;;;;;;5043546;28;20196;-74
2021/03/09 09:19:37;;;;;;;9.63;5.60;;;4.30;99.90;;;;;;5047067;28;20190;-74
2021/03/09 09:22:03;;;;;;;7.70;4.85;;;4.30;99.90;;;;;;5054049;28;20276;-74
2021/03/09 09:24:29;;;;;;;8.30;5.47;;;4.30;99.90;;;;;;5044123;28;20213;-74
2021/03/09 09:27:03;;;;;;;5.32;4.65;;;4.40;99.90;;;;;;5053167;28;20298;-74
2021/03/09 09:29:30;;;;;;;8.95;5.35;;;4.40;99.90;;;;;;5039336;28;20553;-74
2021/03/09 09:31:58;;;;;;;9.20;5.32;;;4.40;99.90;;;;;;5052508;28;20278;-74
2021/03/09 09:34:35;;;;;;;7.57;4.53;;;4.40;99.90;;;;;;5047062;28;20194;-74
2021/03/09 09:37:12;;;;;;;7.60;5.07;;;4.50;99.90;;;;;;5042602;28;20561;-75
2021/03/09 09:39:38;;;;;;;8.50;4.50;;;4.60;99.90;;;;;;5047109;28;20282;-74
2021/03/09 09:42:13;;;;;;;6.10;3.85;;;4.60;99.90;;;;;;5044276;28;20281;-74
2021/03/09 09:44:40;;;;;;;10.30;4.90;;;4.60;99.90;;;;;;5053698;28;20759;-74
2021/03/09 09:47:07;;;;;;;6.72;4.28;;;4.70;99.90;;;;;;5037139;28;20293;-75
2021/03/09 09:49:34;;;;;;;5.10;4.07;;;4.60;99.90;;;;;;5050635;28;20248;-74
2021/03/09 09:52:00;;;;;;;6.40;4.40;;;4.70;99.90;;;;;;5045962;28;20308;-74
2021/03/09 09:54:26;;;;;;;4.80;3.00;;;4.60;99.80;;;;;;5040196;28;20282;-74
2021/03/09 09:56:52;;;;;;;7.28;3.45;;;4.60;99.90;;;;;;5045788;28;20269;-74
2021/03/09 09:59:28;;;;;;;4.00;2.97;;;4.60;99.90;;;;;;5049546;28;20260;-74
2021/03/09 10:01:55;;;;;;;5.35;3.40;;;4.60;99.60;;;;;;5042373;28;20224;-74
2021/03/09 10:04:21;;;;;;;3.70;2.95;;;4.50;99.80;;;;;;5040991;28;20550;-74
2021/03/09 10:06:48;;;;;;;5.50;2.83;;;4.50;99.90;;;;;;5049121;28;20218;-74
2021/03/09 10:09:17;;;;;;;4.07;3.28;;;4.50;99.10;;;;;;5046424;28;20190;-74
2021/03/09 10:11:45;;;;;;;4.78;3.00;;;4.50;99.00;;;;;;5046090;28;20613;-73
2021/03/09 10:14:11;;;;;;;6.30;4.15;;;4.50;99.60;;;;;;5044362;28;20220;-73
2021/03/09 10:16:38;;;;;;;8.27;4.45;;;4.50;98.90;;;;;;5038467;28;20222;-73
2021/03/09 10:19:06;;;;;;;2.95;2.67;;;4.50;97.70;;;;;;5049574;28;20604;-73
2021/03/09 10:21:33;;;;;;;3.38;3.00;;;4.40;97.60;;;;;;5038670;28;20288;-74
2021/03/09 10:24:00;;;;;;;6.10;3.33;;;4.50;98.30;;;;;;5043423;28;20219;-73
2021/03/09 10:26:29;;;;;;;5.95;3.03;;;4.50;98.70;;;;;;5046274;28;20277;-73
2021/03/09 10:29:03;;;;;;;7.68;3.20;;;4.50;99.00;;;;;;5036187;28;20222;-74
2021/03/09 10:31:39;;;;;;;5.38;3.20;;;4.60;98.70;;;;;;5047576;28;20644;-74
2021/03/09 10:34:06;;;;;;;5.47;3.53;;;4.60;98.20;;;;;;5041779;28;20205;-73
2021/03/09 10:36:54;;;;;;;4.05;3.13;;;4.70;97.80;;;;;;5047073;28;20269;-73
2021/03/09 10:39:21;;;;;;;4.45;2.90;;;4.80;97.20;;;;;;5043346;28;20267;-73
2021/03/09 10:41:47;;;;;;;7.10;2.75;;;4.90;97.20;;;;;;5045023;28;20202;-73
2021/03/09 10:44:34;;;;;;;3.80;2.67;;;5.00;97.30;;;;;;5043925;28;20277;-74
2021/03/09 10:47:02;;;;;;;4.30;2.80;;;5.10;98.10;;;;;;5050055;28;20182;-73
2021/03/09 10:49:29;;;;;;;3.35;3.03;;;5.20;98.60;;;;;;5037874;28;20217;-74
2021/03/09 10:51:56;;;;;;;5.55;3.08;;;5.30;98.10;;;;;;5043665;28;20650;-74
2021/03/09 10:54:22;;;;;;;3.15;2.40;;;5.40;97.60;;;;;;5034125;28;20190;-74
2021/03/09 10:56:48;;;;;;;4.40;1.80;;;5.40;97.60;;;;;;5032400;28;20230;-74
2021/03/09 10:59:15;;;;;;;3.40;1.95;;;5.60;95.40;;;;;;5048958;28;20449;-74
2021/03/09 11:01:41;;;;;;;3.92;3.00;;;5.70;93.70;;;;;;5040821;28;20721;-74
2021/03/09 11:04:07;;;;;;;2.90;2.20;;;5.80;93.80;;;;;;5054351;28;20210;-74
2021/03/09 11:06:35;;;;;;;8.75;2.63;;;5.90;93.40;;;;;;5053624;28;20578;-74
2021/03/09 11:09:01;;;;;;;2.05;1.88;;;6.10;93.60;;;;;;5036471;28;20770;-74
2021/03/09 11:11:27;;;;;;;3.78;2.30;;;6.20;93.20;;;;;;5036386;28;20277;-74
2021/03/09 11:13:53;;;;;;;5.90;2.65;;;6.30;92.70;;;;;;5044378;28;20229;-74
2021/03/09 11:16:19;;;;;;;3.33;2.83;;;6.30;93.00;;;;;;5046917;28;20186;-74
2021/03/09 11:18:45;;;;;;;2.90;2.40;;;6.40;92.70;;;;;;5037807;28;20924;-74
2021/03/09 11:21:11;;;;;;;2.90;2.40;;;6.40;92.30;;;;;;5039382;28;20457;-74
2021/03/09 11:23:39;;;;;;;2.35;2.15;;;6.40;92.20;;;;;;5040056;28;20273;-74
2021/03/09 11:26:05;;;;;;;1.55;1.45;;;6.50;91.90;;;;;;5041664;28;20190;-74
2021/03/09 11:28:31;;;;;;;4.15;1.83;;;6.50;91.10;;;;;;5035350;28;20214;-74
2021/03/09 11:30:57;;;;;;;3.03;2.10;;;6.60;90.90;;;;;;5036097;28;20248;-74
2021/03/09 11:33:23;;;;;;;2.67;1.95;;;6.60;90.90;;;;;;5039555;28;21043;-74
2021/03/09 11:35:49;;;;;;;2.50;2.30;;;6.70;91.00;;;;;;5041268;28;20182;-74
2021/03/09 11:38:15;;;;;;;1.98;1.80;;;6.60;91.00;;;;;;5047579;28;20281;-74
2021/03/09 11:40:42;;;;;;;2.20;1.98;;;6.60;90.90;;;;;;5047793;28;20286;-74
2021/03/09 11:43:08;;;;;;;3.10;1.90;;;6.60;90.40;;;;;;5049808;28;20189;-74
2021/03/09 11:45:34;;;;;;;2.58;1.60;;;6.70;89.70;;;;;;5052618;28;20276;-74
2021/03/09 11:48:00;;;;;;;1.70;1.60;;;6.80;88.60;;;;;;5052492;28;20212;-74
2021/03/09 11:50:26;;;;;;;1.90;1.80;;;6.90;85.90;;;;;;5051308;28;20213;-74
2021/03/09 11:52:52;;;;;;;3.95;1.77;;;7.00;86.60;;;;;;5048690;28;20589;-74
2021/03/09 11:55:18;;;;;;;3.00;1.65;;;7.00;87.10;;;;;;5038620;28;20202;-74
2021/03/09 11:57:45;;;;;;;2.10;1.60;;;7.10;87.30;;;;;;5044661;28;20595;-74
2021/03/09 12:00:13;;;;;;;7.45;3.58;;;7.20;87.20;;;;;;5043419;28;20484;-74
2021/03/09 12:02:39;;;;;;;2.58;1.90;;;7.20;86.00;;;;;;5051991;28;20210;-74
2021/03/09 12:05:06;;;;;;;2.55;2.35;;;7.20;85.00;;;;;;5039213;28;20182;-74
2021/03/09 12:07:32;;;;;;;3.15;1.70;;;7.10;85.30;;;;;;5049873;28;20305;-74
2021/03/09 12:09:58;;;;;;;3.10;1.75;;;7.10;85.40;;;;;;5055353;28;20713;-74
2021/03/09 12:12:24;;;;;;;2.40;1.63;;;7.00;84.80;;;;;;5050448;28;20281;-74
2021/03/09 12:14:50;;;;;;;2.25;1.80;;;6.90;84.80;;;;;;5038947;28;20183;-74
2021/03/09 12:17:16;;;;;;;2.00;1.60;;;6.80;82.80;;;;;;5050444;28;20700;-74
2021/03/09 12:19:42;;;;;;;2.87;2.13;;;6.60;82.80;;;;;;5043939;28;20265;-74
2021/03/09 12:22:08;;;;;;;2.27;2.07;;;6.50;83.90;;;;;;5043239;28;20484;-76
2021/03/09 12:24:34;;;;;;;2.33;1.67;;;6.40;84.50;;;;;;5050675;28;20554;-74
2021/03/09 12:27:01;;;;;;;4.30;2.00;;;6.30;84.70;;;;;;5038583;28;20222;-74
2021/03/09 12:29:27;;;;;;;2.50;1.90;;;6.10;85.20;;;;;;5052209;28;20190;-74
2021/03/09 12:31:54;;;;;;;2.55;2.05;;;6.00;84.70;;;;;;5053042;28;20276;-74
2021/03/09 12:34:20;;;;;;;4.07;2.47;;;6.00;84.40;;;;;;5041652;28;20624;-73
2021/03/09 12:36:46;;;;;;;3.40;2.92;;;6.00;84.80;;;;;;5050938;28;20620;-74
2021/03/09 12:39:13;;;;;;;2.45;1.98;;;6.00;85.20;;;;;;5039622;28;20642;-74
2021/03/09 12:41:39;;;;;;;2.05;1.85;;;6.00;86.30;;;;;;5039390;28;20193;-74
2021/03/09 12:44:05;;;;;;;2.80;2.30;;;6.00;86.00;;;;;;5046606;28;20268;-74
2021/03/09 12:46:32;;;;;;;2.55;1.83;;;6.10;85.10;;;;;;5039701;28;20601;-74
2021/03/09 12:48:58;;;;;;;2.22;2.03;;;6.10;84.30;;;;;;5053340;28;20269;-74
2021/03/09 12:51:24;;;;;;;1.98;1.85;;;6.20;83.00;;;;;;5048773;28;20183;-75
2021/03/09 12:53:50;;;;;;;4.55;1.85;;;6.30;82.90;;;;;;5044245;28;20703;-74
2021/03/09 12:56:16;;;;;;;3.63;2.28;;;6.40;80.50;;;;;;5054801;28;20190;-74
2021/03/09 12:58:42;;;;;;;2.17;1.95;;;6.50;79.70;;;;;;5038090;28;20278;-74